createdAt,value
2019-05-29T00:04:04.487Z,4.17
2019-05-29T00:09:38.421Z,4.97
2019-05-29T00:15:08.395Z,4.83
2019-05-29T00:20:37.701Z,6.00
2019-05-29T00:26:06.975Z,5.20
2019-05-29T00:31:39.657Z,6.00
2019-05-29T00:37:14.612Z,5.13
2019-05-29T00:42:48.781Z,5.23
2019-05-29T00:48:18.060Z,5.10
2019-05-29T00:53:48.295Z,4.90
2019-05-29T00:59:17.588Z,5.53
2019-05-29T01:04:46.890Z,4.67
2019-05-29T01:10:18.806Z,5.70
2019-05-29T01:15:48.843Z,5.20
2019-05-29T01:21:18.162Z,5.90
2019-05-29T01:26:49.417Z,4.77
2019-05-29T01:32:19.546Z,5.40
2019-05-29T01:37:48.884Z,4.73
2019-05-29T01:43:19.135Z,4.43
2019-05-29T01:48:48.625Z,4.90
2019-05-29T01:54:19.624Z,5.67
2019-05-29T01:59:49.005Z,5.30
2019-05-29T02:05:18.268Z,5.13
2019-05-29T02:10:47.601Z,5.40
2019-05-29T02:16:16.872Z,5.23
2019-05-29T02:21:46.133Z,5.40
2019-05-29T02:27:15.479Z,5.03
2019-05-29T02:32:44.743Z,4.97
2019-05-29T02:38:14.037Z,4.90
2019-05-29T02:43:43.316Z,6.00
2019-05-29T02:49:12.656Z,5.87
2019-05-29T02:54:41.925Z,5.80
2019-05-29T03:00:11.567Z,6.30
2019-05-29T03:05:40.925Z,6.27
2019-05-29T03:11:10.518Z,6.63
2019-05-29T03:16:39.786Z,6.67
2019-05-29T03:22:09.057Z,7.70
2019-05-29T03:27:38.634Z,7.77
2019-05-29T03:33:07.892Z,8.50
2019-05-29T03:38:38.598Z,8.20
2019-05-29T03:44:10.509Z,9.07
2019-05-29T03:49:38.983Z,9.97
2019-05-29T03:55:13.672Z,9.53
2019-05-29T04:00:46.452Z,9.47
2019-05-29T04:06:14.026Z,9.63
2019-05-29T04:11:43.435Z,10.40
2019-05-29T04:17:25.553Z,9.97
2019-05-29T04:23:00.186Z,10.57
2019-05-29T04:28:32.267Z,11.10
2019-05-29T04:34:01.576Z,15.63
2019-05-29T04:39:34.403Z,10.20
2019-05-29T04:45:08.362Z,10.50
2019-05-29T04:50:39.700Z,10.10
2019-05-29T04:56:08.660Z,10.10
2019-05-29T05:01:39.206Z,10.07
2019-05-29T05:07:08.605Z,10.50
2019-05-29T05:12:38.036Z,9.63
2019-05-29T05:18:07.842Z,9.70
2019-05-29T05:23:38.249Z,10.30
2019-05-29T05:29:07.610Z,9.53
2019-05-29T05:34:36.948Z,9.20
2019-05-29T05:40:07.286Z,8.70
2019-05-29T05:45:37.108Z,8.13
2019-05-29T05:51:06.482Z,8.50
2019-05-29T05:56:35.829Z,7.80
2019-05-29T06:02:06.167Z,7.90
2019-05-29T06:07:36.067Z,8.20
2019-05-29T06:13:05.628Z,8.50
2019-05-29T06:18:34.939Z,8.30
2019-05-29T06:24:04.419Z,8.93
2019-05-29T06:29:35.123Z,9.27
2019-05-29T06:35:05.665Z,7.73
2019-05-29T06:40:42.111Z,7.90
2019-05-29T06:46:11.616Z,7.47
2019-05-29T06:51:41.329Z,8.40
2019-05-29T06:57:10.828Z,7.10
2019-05-29T07:02:41.086Z,8.23
2019-05-29T07:08:19.230Z,5.70
2019-05-29T07:13:43.905Z,6.80
2019-05-29T07:19:45.350Z,5.70
2019-05-29T07:24:44.927Z,6.10
2019-05-29T07:30:14.705Z,6.33
2019-05-29T07:35:44.045Z,6.20
2019-05-29T07:41:13.364Z,6.03
2019-05-29T07:46:42.611Z,5.67
2019-05-29T07:52:11.886Z,6.60
2019-05-29T07:57:41.176Z,6.03
2019-05-29T08:03:10.461Z,5.50
2019-05-29T08:08:41.116Z,5.13
2019-05-29T08:14:10.410Z,4.60
2019-05-29T08:19:56.929Z,4.83
2019-05-29T08:25:10.996Z,4.73
2019-05-29T08:30:41.202Z,5.20
2019-05-29T08:36:11.306Z,6.63
2019-05-29T08:41:40.629Z,6.33
2019-05-29T08:47:11.019Z,4.37
2019-05-29T08:52:41.692Z,4.90
2019-05-29T08:58:11.107Z,4.50
2019-05-29T09:03:40.408Z,4.43
2019-05-29T09:09:11.703Z,4.50
2019-05-29T09:14:40.997Z,5.30
2019-05-29T09:20:26.045Z,4.80
2019-05-29T09:25:42.011Z,4.70
2019-05-29T09:31:11.261Z,4.13
2019-05-29T09:36:40.682Z,4.50
2019-05-29T09:42:10.091Z,4.10
2019-05-29T09:47:39.364Z,3.60
2019-05-29T09:53:08.660Z,5.47
2019-05-29T09:58:37.925Z,4.60
2019-05-29T10:04:07.286Z,4.57
2019-05-29T10:09:36.568Z,6.17
2019-05-29T10:15:08.124Z,5.57
2019-05-29T10:20:37.401Z,6.90
2019-05-29T10:26:06.745Z,7.30
2019-05-29T10:31:36.049Z,7.30
2019-05-29T10:37:05.556Z,7.13
2019-05-29T10:42:34.883Z,8.60
2019-05-29T10:48:04.760Z,8.07
2019-05-29T10:53:35.075Z,8.43
2019-05-29T10:59:04.492Z,8.47
2019-05-29T11:04:33.779Z,5.40
2019-05-29T11:10:03.695Z,5.50
2019-05-29T11:15:32.967Z,5.70
2019-05-29T11:21:02.252Z,5.30
2019-05-29T11:26:31.516Z,4.57
2019-05-29T11:32:00.818Z,5.15
2019-05-29T11:37:30.178Z,4.33
2019-05-29T11:42:59.457Z,5.33
2019-05-29T11:48:29.635Z,4.40
2019-05-29T11:53:59.592Z,4.20
2019-05-29T11:59:29.025Z,4.73
2019-05-29T12:05:03.456Z,4.30
2019-05-29T12:10:29.272Z,4.00
2019-05-29T12:15:59.637Z,4.00
2019-05-29T12:21:30.827Z,4.30
2019-05-29T12:27:00.590Z,4.70
2019-05-29T12:32:29.956Z,3.50
2019-05-29T12:37:59.468Z,2.80
2019-05-29T12:43:28.775Z,3.30
2019-05-29T12:48:58.071Z,4.30
2019-05-29T12:54:27.331Z,3.60
2019-05-29T12:59:57.901Z,4.87
2019-05-29T13:05:27.716Z,4.77
2019-05-29T13:10:58.229Z,4.73
2019-05-29T13:16:27.561Z,4.53
2019-05-29T13:21:57.269Z,5.03
2019-05-29T13:27:26.595Z,4.40
2019-05-29T13:33:02.290Z,4.30
2019-05-29T13:38:26.984Z,6.00
2019-05-29T13:43:56.510Z,5.63
2019-05-29T13:49:25.912Z,5.57
2019-05-29T13:54:55.247Z,5.70
2019-05-29T14:00:33.232Z,7.33
2019-05-29T14:05:58.671Z,5.63
2019-05-29T14:11:29.980Z,4.80
2019-05-29T14:17:00.370Z,4.77
2019-05-29T14:22:29.773Z,5.90
2019-05-29T14:28:00.672Z,4.47
2019-05-29T14:33:30.056Z,4.40
2019-05-29T14:38:59.346Z,4.60
2019-05-29T14:44:28.719Z,4.10
2019-05-29T14:49:58.048Z,4.83
2019-05-29T14:55:27.382Z,3.80
2019-05-29T15:00:56.726Z,2.90
2019-05-29T15:06:26.006Z,3.17
2019-05-29T15:11:55.287Z,3.30
2019-05-29T15:17:24.677Z,3.37
2019-05-29T15:22:54.073Z,4.40
2019-05-29T15:28:23.342Z,4.37
2019-05-29T15:33:52.625Z,4.87
2019-05-29T15:39:21.969Z,5.37
2019-05-29T15:44:51.385Z,5.50
2019-05-29T15:50:20.978Z,5.27
2019-05-29T15:55:50.268Z,4.63
2019-05-29T16:01:19.547Z,4.40
2019-05-29T16:06:48.911Z,4.80
2019-05-29T16:12:18.973Z,5.03
2019-05-29T16:17:48.494Z,5.30
2019-05-29T16:23:33.513Z,6.40
2019-05-29T16:28:48.783Z,6.70
2019-05-29T16:34:19.681Z,6.47
2019-05-29T16:39:49.091Z,5.83
2019-05-29T16:45:18.802Z,5.87
2019-05-29T16:50:49.978Z,6.40
2019-05-29T16:56:21.216Z,6.30
2019-05-29T17:01:56.291Z,5.43
2019-05-29T17:07:25.611Z,5.33
2019-05-29T17:12:54.907Z,4.30
2019-05-29T17:18:25.012Z,5.43
2019-05-29T17:24:01.355Z,5.13
2019-05-29T17:29:30.670Z,3.50
2019-05-29T17:35:00.424Z,3.30
2019-05-29T17:40:29.782Z,3.57
2019-05-29T17:45:59.085Z,4.73
2019-05-29T17:51:28.489Z,4.30
2019-05-29T17:56:58.717Z,4.50
2019-05-29T18:02:28.515Z,3.80
2019-05-29T18:08:01.694Z,3.60
2019-05-29T18:13:28.851Z,3.53
2019-05-29T18:18:58.135Z,7.93
2019-05-29T18:24:28.087Z,4.70
2019-05-29T18:29:57.659Z,5.90
2019-05-29T18:35:27.105Z,4.20
2019-05-29T18:40:56.482Z,4.37
2019-05-29T18:46:27.152Z,5.47
2019-05-29T18:52:00.244Z,4.63
2019-05-29T18:57:31.396Z,3.73
2019-05-29T19:03:00.759Z,3.80
2019-05-29T19:08:30.025Z,3.93
2019-05-29T19:13:59.318Z,3.70
2019-05-29T19:19:28.694Z,3.93
2019-05-29T19:24:57.970Z,3.77
2019-05-29T19:30:27.252Z,4.13
2019-05-29T19:35:56.667Z,4.23
2019-05-29T19:41:25.976Z,4.33
2019-05-29T19:46:55.253Z,4.37
2019-05-29T19:52:25.100Z,4.40
2019-05-29T19:57:56.520Z,4.43
2019-05-29T20:03:26.323Z,3.73
2019-05-29T20:08:55.701Z,4.70
2019-05-29T20:14:25.041Z,6.07
2019-05-29T20:19:54.427Z,4.87
2019-05-29T20:25:24.014Z,5.20
2019-05-29T20:30:53.277Z,4.90
2019-05-29T20:36:22.572Z,10.60
2019-05-29T20:41:51.919Z,5.70
2019-05-29T20:47:22.058Z,5.83
2019-05-29T20:52:51.577Z,4.97
2019-05-29T20:58:24.573Z,5.90
2019-05-29T21:03:52.066Z,5.43
2019-05-29T21:09:21.580Z,4.67
2019-05-29T21:14:50.877Z,5.13
2019-05-29T21:20:20.428Z,5.67
2019-05-29T21:25:49.741Z,5.30
2019-05-29T21:31:19.148Z,5.50
2019-05-29T21:36:48.383Z,5.67
2019-05-29T21:42:17.668Z,5.57
2019-05-29T21:47:47.361Z,5.77
2019-05-29T21:53:16.597Z,7.30
2019-05-29T21:59:00.148Z,5.03
2019-05-29T22:04:16.886Z,5.20
2019-05-29T22:09:46.239Z,5.30
2019-05-29T22:15:16.166Z,4.93
2019-05-29T22:20:45.503Z,5.83
2019-05-29T22:26:14.762Z,5.27
2019-05-29T22:31:44.042Z,5.77
2019-05-29T22:37:13.389Z,5.47
2019-05-29T22:42:42.696Z,5.77
2019-05-29T22:48:13.894Z,5.57
2019-05-29T22:53:43.173Z,5.97
2019-05-29T22:59:12.520Z,6.00
2019-05-29T23:04:41.803Z,6.37
2019-05-29T23:10:12.556Z,6.07
2019-05-29T23:15:42.652Z,6.23
2019-05-29T23:21:11.952Z,5.33
2019-05-29T23:26:41.220Z,5.60
2019-05-29T23:32:10.506Z,6.30
2019-05-29T23:37:39.849Z,5.93
2019-05-29T23:43:11.048Z,6.00
2019-05-29T23:48:40.661Z,7.00
2019-05-29T23:54:09.931Z,6.27
2019-05-29T23:59:39.192Z,6.60
